sensor_id;sensor_type;location;lat;lon;timestamp;P1;durP1;ratioP1;P2;durP2;ratioP2
15228;SDS011;7717;47.792;12.076;2023-11-21T00:01:26;4.27;;;1.10;;
15228;SDS011;7717;47.792;12.076;2023-11-21T00:03:51;4.40;;;1.07;;
15228;SDS011;7717;47.792;12.076;2023-11-21T00:06:20;3.53;;;1.10;;
15228;SDS011;7717;47.792;12.076;2023-11-21T00:08:45;3.53;;;0.90;;
15228;SDS011;7717;47.792;12.076;2023-11-21T00:11:11;2.63;;;0.97;;
15228;SDS011;7717;47.792;12.076;2023-11-21T00:13:36;2.77;;;0.87;;
15228;SDS011;7717;47.792;12.076;2023-11-21T00:16:05;2.73;;;2.10;;
15228;SDS011;7717;47.792;12.076;2023-11-21T00:18:32;3.93;;;2.90;;
15228;SDS011;7717;47.792;12.076;2023-11-21T00:20:57;4.17;;;2.73;;
15228;SDS011;7717;47.792;12.076;2023-11-21T00:23:24;3.63;;;3.00;;
15228;SDS011;7717;47.792;12.076;2023-11-21T00:25:49;3.57;;;3.17;;
15228;SDS011;7717;47.792;12.076;2023-11-21T00:28:14;4.27;;;2.97;;
15228;SDS011;7717;47.792;12.076;2023-11-21T00:30:40;4.30;;;3.63;;
15228;SDS011;7717;47.792;12.076;2023-11-21T00:33:05;4.53;;;3.63;;
15228;SDS011;7717;47.792;12.076;2023-11-21T00:35:31;4.07;;;3.50;;
15228;SDS011;7717;47.792;12.076;2023-11-21T00:37:56;5.90;;;3.50;;
15228;SDS011;7717;47.792;12.076;2023-11-21T00:40:22;4.93;;;3.40;;
15228;SDS011;7717;47.792;12.076;2023-11-21T00:42:48;3.80;;;3.40;;
15228;SDS011;7717;47.792;12.076;2023-11-21T00:45:13;4.77;;;3.97;;
15228;SDS011;7717;47.792;12.076;2023-11-21T00:47:39;4.23;;;3.40;;
15228;SDS011;7717;47.792;12.076;2023-11-21T00:50:07;3.97;;;3.67;;
15228;SDS011;7717;47.792;12.076;2023-11-21T00:52:33;6.93;;;3.87;;
15228;SDS011;7717;47.792;12.076;2023-11-21T00:54:58;5.13;;;3.67;;
15228;SDS011;7717;47.792;12.076;2023-11-21T00:57:25;4.80;;;4.00;;
15228;SDS011;7717;47.792;12.076;2023-11-21T00:59:51;6.63;;;3.97;;
15228;SDS011;7717;47.792;12.076;2023-11-21T01:02:17;4.97;;;4.27;;
15228;SDS011;7717;47.792;12.076;2023-11-21T01:04:42;7.70;;;3.63;;
15228;SDS011;7717;47.792;12.076;2023-11-21T01:07:08;5.50;;;3.87;;
15228;SDS011;7717;47.792;12.076;2023-11-21T01:09:34;6.13;;;3.90;;
15228;SDS011;7717;47.792;12.076;2023-11-21T01:11:59;4.43;;;4.00;;
15228;SDS011;7717;47.792;12.076;2023-11-21T01:14:25;4.60;;;4.17;;
15228;SDS011;7717;47.792;12.076;2023-11-21T01:16:52;4.73;;;4.20;;
15228;SDS011;7717;47.792;12.076;2023-11-21T01:19:18;5.60;;;4.40;;
15228;SDS011;7717;47.792;12.076;2023-11-21T01:21:43;5.90;;;4.33;;
15228;SDS011;7717;47.792;12.076;2023-11-21T01:24:11;5.73;;;4.37;;
15228;SDS011;7717;47.792;12.076;2023-11-21T01:26:37;5.10;;;4.23;;
15228;SDS011;7717;47.792;12.076;2023-11-21T01:29:02;5.23;;;4.50;;
15228;SDS011;7717;47.792;12.076;2023-11-21T01:31:28;5.90;;;4.20;;
15228;SDS011;7717;47.792;12.076;2023-11-21T01:33:55;8.03;;;4.87;;
15228;SDS011;7717;47.792;12.076;2023-11-21T01:36:21;5.80;;;4.60;;
15228;SDS011;7717;47.792;12.076;2023-11-21T01:38:46;9.30;;;5.83;;
15228;SDS011;7717;47.792;12.076;2023-11-21T01:41:13;5.63;;;4.73;;
15228;SDS011;7717;47.792;12.076;2023-11-21T01:43:39;6.87;;;5.20;;
15228;SDS011;7717;47.792;12.076;2023-11-21T01:46:05;7.10;;;4.93;;
15228;SDS011;7717;47.792;12.076;2023-11-21T01:48:31;6.07;;;4.87;;
15228;SDS011;7717;47.792;12.076;2023-11-21T01:50:57;7.13;;;4.63;;
15228;SDS011;7717;47.792;12.076;2023-11-21T01:53:26;6.63;;;5.03;;
15228;SDS011;7717;47.792;12.076;2023-11-21T01:55:53;6.07;;;5.10;;
15228;SDS011;7717;47.792;12.076;2023-11-21T01:58:20;5.93;;;4.87;;
15228;SDS011;7717;47.792;12.076;2023-11-21T02:00:46;7.33;;;5.10;;
15228;SDS011;7717;47.792;12.076;2023-11-21T02:03:15;5.53;;;5.03;;
15228;SDS011;7717;47.792;12.076;2023-11-21T02:05:41;6.70;;;5.60;;
15228;SDS011;7717;47.792;12.076;2023-11-21T02:08:07;6.00;;;5.40;;
15228;SDS011;7717;47.792;12.076;2023-11-21T02:10:34;11.27;;;5.57;;
15228;SDS011;7717;47.792;12.076;2023-11-21T02:13:02;5.40;;;4.90;;
15228;SDS011;7717;47.792;12.076;2023-11-21T02:15:27;5.80;;;5.27;;
15228;SDS011;7717;47.792;12.076;2023-11-21T02:17:53;6.13;;;5.53;;
15228;SDS011;7717;47.792;12.076;2023-11-21T02:20:20;6.57;;;5.80;;
15228;SDS011;7717;47.792;12.076;2023-11-21T02:22:53;7.67;;;5.83;;
15228;SDS011;7717;47.792;12.076;2023-11-21T02:25:28;6.00;;;5.43;;
15228;SDS011;7717;47.792;12.076;2023-11-21T02:27:56;10.73;;;6.37;;
15228;SDS011;7717;47.792;12.076;2023-11-21T02:30:22;6.23;;;5.43;;
15228;SDS011;7717;47.792;12.076;2023-11-21T02:32:50;6.20;;;5.60;;
15228;SDS011;7717;47.792;12.076;2023-11-21T02:35:18;7.67;;;6.37;;
15228;SDS011;7717;47.792;12.076;2023-11-21T02:37:46;8.27;;;6.53;;
15228;SDS011;7717;47.792;12.076;2023-11-21T02:40:15;7.37;;;6.23;;
15228;SDS011;7717;47.792;12.076;2023-11-21T02:42:45;6.50;;;5.90;;
15228;SDS011;7717;47.792;12.076;2023-11-21T02:45:14;6.60;;;5.53;;
15228;SDS011;7717;47.792;12.076;2023-11-21T02:47:44;6.33;;;5.67;;
15228;SDS011;7717;47.792;12.076;2023-11-21T02:50:10;8.67;;;6.30;;
15228;SDS011;7717;47.792;12.076;2023-11-21T02:52:35;6.37;;;5.77;;
15228;SDS011;7717;47.792;12.076;2023-11-21T02:55:04;7.00;;;6.30;;
15228;SDS011;7717;47.792;12.076;2023-11-21T02:57:29;7.83;;;6.37;;
15228;SDS011;7717;47.792;12.076;2023-11-21T02:59:55;6.47;;;5.87;;
15228;SDS011;7717;47.792;12.076;2023-11-21T03:02:21;8.30;;;6.37;;
15228;SDS011;7717;47.792;12.076;2023-11-21T03:04:47;6.37;;;5.60;;
15228;SDS011;7717;47.792;12.076;2023-11-21T03:07:14;6.50;;;5.83;;
15228;SDS011;7717;47.792;12.076;2023-11-21T03:09:40;6.90;;;6.20;;
15228;SDS011;7717;47.792;12.076;2023-11-21T03:12:06;6.33;;;5.70;;
15228;SDS011;7717;47.792;12.076;2023-11-21T03:14:31;8.67;;;6.07;;
15228;SDS011;7717;47.792;12.076;2023-11-21T03:16:56;8.33;;;5.70;;
15228;SDS011;7717;47.792;12.076;2023-11-21T03:19:22;8.23;;;5.80;;
15228;SDS011;7717;47.792;12.076;2023-11-21T03:21:47;8.70;;;6.60;;
15228;SDS011;7717;47.792;12.076;2023-11-21T03:24:13;9.40;;;6.33;;
15228;SDS011;7717;47.792;12.076;2023-11-21T03:26:38;8.63;;;6.07;;
15228;SDS011;7717;47.792;12.076;2023-11-21T03:29:04;7.90;;;5.20;;
15228;SDS011;7717;47.792;12.076;2023-11-21T03:31:29;6.00;;;5.30;;
15228;SDS011;7717;47.792;12.076;2023-11-21T03:33:55;8.17;;;5.07;;
15228;SDS011;7717;47.792;12.076;2023-11-21T03:36:20;5.67;;;5.10;;
15228;SDS011;7717;47.792;12.076;2023-11-21T03:38:47;6.93;;;5.47;;
15228;SDS011;7717;47.792;12.076;2023-11-21T03:41:13;6.50;;;5.83;;
15228;SDS011;7717;47.792;12.076;2023-11-21T03:43:39;9.30;;;6.13;;
15228;SDS011;7717;47.792;12.076;2023-11-21T03:46:05;6.50;;;5.73;;
15228;SDS011;7717;47.792;12.076;2023-11-21T03:48:30;7.67;;;5.87;;
15228;SDS011;7717;47.792;12.076;2023-11-21T03:50:58;5.40;;;4.90;;
15228;SDS011;7717;47.792;12.076;2023-11-21T03:53:23;8.97;;;6.33;;
15228;SDS011;7717;47.792;12.076;2023-11-21T03:55:49;7.17;;;5.53;;
15228;SDS011;7717;47.792;12.076;2023-11-21T03:58:15;6.47;;;5.77;;
15228;SDS011;7717;47.792;12.076;2023-11-21T04:00:41;6.17;;;5.57;;
15228;SDS011;7717;47.792;12.076;2023-11-21T04:03:06;6.77;;;5.57;;
15228;SDS011;7717;47.792;12.076;2023-11-21T04:05:31;9.23;;;5.83;;
15228;SDS011;7717;47.792;12.076;2023-11-21T04:07:57;8.87;;;5.43;;
15228;SDS011;7717;47.792;12.076;2023-11-21T04:10:23;6.37;;;5.40;;
15228;SDS011;7717;47.792;12.076;2023-11-21T04:12:48;9.00;;;5.60;;
15228;SDS011;7717;47.792;12.076;2023-11-21T04:15:14;6.03;;;5.40;;
15228;SDS011;7717;47.792;12.076;2023-11-21T04:17:39;6.67;;;5.93;;
15228;SDS011;7717;47.792;12.076;2023-11-21T04:20:06;6.73;;;5.37;;
15228;SDS011;7717;47.792;12.076;2023-11-21T04:22:40;12.50;;;8.23;;
15228;SDS011;7717;47.792;12.076;2023-11-21T04:25:09;8.60;;;6.90;;
15228;SDS011;7717;47.792;12.076;2023-11-21T04:27:39;9.87;;;6.03;;
15228;SDS011;7717;47.792;12.076;2023-11-21T04:30:05;10.73;;;6.87;;
15228;SDS011;7717;47.792;12.076;2023-11-21T04:32:31;7.10;;;6.20;;
15228;SDS011;7717;47.792;12.076;2023-11-21T04:34:57;8.73;;;6.20;;
15228;SDS011;7717;47.792;12.076;2023-11-21T04:37:23;7.47;;;6.20;;
15228;SDS011;7717;47.792;12.076;2023-11-21T04:39:49;6.37;;;4.90;;
15228;SDS011;7717;47.792;12.076;2023-11-21T04:42:15;9.13;;;6.10;;
15228;SDS011;7717;47.792;12.076;2023-11-21T04:44:40;5.93;;;5.33;;
15228;SDS011;7717;47.792;12.076;2023-11-21T04:47:06;6.73;;;5.27;;
15228;SDS011;7717;47.792;12.076;2023-11-21T04:49:32;5.63;;;4.97;;
15228;SDS011;7717;47.792;12.076;2023-11-21T04:51:58;8.10;;;5.40;;
15228;SDS011;7717;47.792;12.076;2023-11-21T04:54:24;7.40;;;5.50;;
15228;SDS011;7717;47.792;12.076;2023-11-21T04:56:50;6.27;;;4.80;;
15228;SDS011;7717;47.792;12.076;2023-11-21T04:59:15;6.93;;;4.57;;
15228;SDS011;7717;47.792;12.076;2023-11-21T05:01:40;5.27;;;4.77;;
15228;SDS011;7717;47.792;12.076;2023-11-21T05:04:06;4.87;;;4.40;;
15228;SDS011;7717;47.792;12.076;2023-11-21T05:06:31;4.93;;;4.50;;
15228;SDS011;7717;47.792;12.076;2023-11-21T05:08:57;5.60;;;4.40;;
15228;SDS011;7717;47.792;12.076;2023-11-21T05:11:27;5.80;;;4.83;;
15228;SDS011;7717;47.792;12.076;2023-11-21T05:13:53;5.67;;;5.07;;
15228;SDS011;7717;47.792;12.076;2023-11-21T05:16:21;9.73;;;6.77;;
15228;SDS011;7717;47.792;12.076;2023-11-21T05:18:47;23.43;;;15.03;;
15228;SDS011;7717;47.792;12.076;2023-11-21T05:21:12;36.47;;;25.13;;
15228;SDS011;7717;47.792;12.076;2023-11-21T05:23:38;23.47;;;17.20;;
15228;SDS011;7717;47.792;12.076;2023-11-21T05:26:03;17.40;;;11.33;;
15228;SDS011;7717;47.792;12.076;2023-11-21T05:28:29;11.57;;;8.23;;
15228;SDS011;7717;47.792;12.076;2023-11-21T05:30:55;10.77;;;9.10;;
15228;SDS011;7717;47.792;12.076;2023-11-21T05:33:20;13.27;;;9.17;;
15228;SDS011;7717;47.792;12.076;2023-11-21T05:35:46;12.83;;;8.53;;
15228;SDS011;7717;47.792;12.076;2023-11-21T05:38:13;10.77;;;9.17;;
15228;SDS011;7717;47.792;12.076;2023-11-21T05:40:39;11.33;;;8.70;;
15228;SDS011;7717;47.792;12.076;2023-11-21T05:43:04;9.80;;;8.13;;
15228;SDS011;7717;47.792;12.076;2023-11-21T05:45:30;8.63;;;7.53;;
15228;SDS011;7717;47.792;12.076;2023-11-21T05:47:57;9.63;;;7.80;;
15228;SDS011;7717;47.792;12.076;2023-11-21T05:50:26;11.47;;;8.20;;
15228;SDS011;7717;47.792;12.076;2023-11-21T05:52:51;17.03;;;12.70;;
15228;SDS011;7717;47.792;12.076;2023-11-21T05:55:17;15.33;;;11.50;;
15228;SDS011;7717;47.792;12.076;2023-11-21T05:57:42;16.37;;;11.67;;
15228;SDS011;7717;47.792;12.076;2023-11-21T06:00:09;10.43;;;9.03;;
15228;SDS011;7717;47.792;12.076;2023-11-21T06:02:40;10.97;;;8.90;;
15228;SDS011;7717;47.792;12.076;2023-11-21T06:05:07;9.07;;;7.47;;
15228;SDS011;7717;47.792;12.076;2023-11-21T06:07:33;8.60;;;6.90;;
15228;SDS011;7717;47.792;12.076;2023-11-21T06:10:00;10.77;;;7.83;;
15228;SDS011;7717;47.792;12.076;2023-11-21T06:12:31;8.90;;;6.93;;
15228;SDS011;7717;47.792;12.076;2023-11-21T06:15:00;6.57;;;5.87;;
15228;SDS011;7717;47.792;12.076;2023-11-21T06:17:29;9.00;;;6.13;;
15228;SDS011;7717;47.792;12.076;2023-11-21T06:19:54;8.37;;;6.77;;
15228;SDS011;7717;47.792;12.076;2023-11-21T06:22:20;6.93;;;6.10;;
15228;SDS011;7717;47.792;12.076;2023-11-21T06:24:46;6.40;;;5.80;;
15228;SDS011;7717;47.792;12.076;2023-11-21T06:27:11;8.27;;;7.07;;
15228;SDS011;7717;47.792;12.076;2023-11-21T06:29:36;8.43;;;6.30;;
15228;SDS011;7717;47.792;12.076;2023-11-21T06:32:02;9.17;;;7.20;;
15228;SDS011;7717;47.792;12.076;2023-11-21T06:34:30;7.73;;;6.80;;
15228;SDS011;7717;47.792;12.076;2023-11-21T06:36:59;7.40;;;6.07;;
15228;SDS011;7717;47.792;12.076;2023-11-21T06:39:24;6.30;;;5.70;;
15228;SDS011;7717;47.792;12.076;2023-11-21T06:41:49;6.70;;;6.00;;
15228;SDS011;7717;47.792;12.076;2023-11-21T06:44:15;8.13;;;5.80;;
15228;SDS011;7717;47.792;12.076;2023-11-21T06:46:40;8.17;;;5.70;;
15228;SDS011;7717;47.792;12.076;2023-11-21T06:49:07;10.17;;;7.80;;
15228;SDS011;7717;47.792;12.076;2023-11-21T06:51:42;8.77;;;6.37;;
15228;SDS011;7717;47.792;12.076;2023-11-21T06:54:07;9.33;;;6.43;;
15228;SDS011;7717;47.792;12.076;2023-11-21T06:56:33;8.20;;;5.47;;
15228;SDS011;7717;47.792;12.076;2023-11-21T06:58:58;6.53;;;4.93;;
15228;SDS011;7717;47.792;12.076;2023-11-21T07:01:23;6.63;;;5.93;;
15228;SDS011;7717;47.792;12.076;2023-11-21T07:03:49;7.40;;;5.10;;
15228;SDS011;7717;47.792;12.076;2023-11-21T07:06:15;6.67;;;5.27;;
15228;SDS011;7717;47.792;12.076;2023-11-21T07:08:40;7.57;;;5.27;;
15228;SDS011;7717;47.792;12.076;2023-11-21T07:11:06;6.47;;;4.93;;
15228;SDS011;7717;47.792;12.076;2023-11-21T07:13:32;5.07;;;4.60;;
15228;SDS011;7717;47.792;12.076;2023-11-21T07:15:57;5.43;;;4.77;;
15228;SDS011;7717;47.792;12.076;2023-11-21T07:18:24;6.83;;;5.43;;
15228;SDS011;7717;47.792;12.076;2023-11-21T07:20:49;9.50;;;7.13;;
15228;SDS011;7717;47.792;12.076;2023-11-21T07:23:14;7.30;;;6.07;;
15228;SDS011;7717;47.792;12.076;2023-11-21T07:25:43;6.37;;;5.53;;
15228;SDS011;7717;47.792;12.076;2023-11-21T07:28:09;6.90;;;5.57;;
15228;SDS011;7717;47.792;12.076;2023-11-21T07:30:34;8.23;;;5.97;;
15228;SDS011;7717;47.792;12.076;2023-11-21T07:32:59;8.67;;;7.07;;
15228;SDS011;7717;47.792;12.076;2023-11-21T07:35:25;9.27;;;7.20;;
15228;SDS011;7717;47.792;12.076;2023-11-21T07:37:51;11.03;;;6.97;;
15228;SDS011;7717;47.792;12.076;2023-11-21T07:40:17;8.17;;;6.47;;
15228;SDS011;7717;47.792;12.076;2023-11-21T07:42:42;7.63;;;6.80;;
15228;SDS011;7717;47.792;12.076;2023-11-21T07:45:10;10.03;;;6.10;;
15228;SDS011;7717;47.792;12.076;2023-11-21T07:47:36;9.93;;;6.97;;
15228;SDS011;7717;47.792;12.076;2023-11-21T07:50:03;6.73;;;6.00;;
15228;SDS011;7717;47.792;12.076;2023-11-21T07:52:28;8.33;;;7.27;;
15228;SDS011;7717;47.792;12.076;2023-11-21T07:54:54;8.23;;;6.63;;
15228;SDS011;7717;47.792;12.076;2023-11-21T07:57:19;8.20;;;6.63;;
15228;SDS011;7717;47.792;12.076;2023-11-21T07:59:48;9.00;;;7.40;;
15228;SDS011;7717;47.792;12.076;2023-11-21T08:02:14;8.53;;;7.07;;
15228;SDS011;7717;47.792;12.076;2023-11-21T08:04:41;14.63;;;10.20;;
15228;SDS011;7717;47.792;12.076;2023-11-21T08:07:07;9.10;;;5.83;;
15228;SDS011;7717;47.792;12.076;2023-11-21T08:09:32;7.60;;;6.23;;
15228;SDS011;7717;47.792;12.076;2023-11-21T08:11:59;8.03;;;5.80;;
15228;SDS011;7717;47.792;12.076;2023-11-21T08:14:25;6.83;;;5.87;;
15228;SDS011;7717;47.792;12.076;2023-11-21T08:16:51;7.67;;;5.90;;
15228;SDS011;7717;47.792;12.076;2023-11-21T08:19:17;7.67;;;6.97;;
15228;SDS011;7717;47.792;12.076;2023-11-21T08:21:43;7.87;;;6.83;;
15228;SDS011;7717;47.792;12.076;2023-11-21T08:24:09;6.93;;;6.23;;
15228;SDS011;7717;47.792;12.076;2023-11-21T08:26:36;7.43;;;5.40;;
15228;SDS011;7717;47.792;12.076;2023-11-21T08:29:02;5.47;;;4.23;;
15228;SDS011;7717;47.792;12.076;2023-11-21T08:31:27;5.23;;;3.70;;
15228;SDS011;7717;47.792;12.076;2023-11-21T08:33:52;3.57;;;2.50;;
15228;SDS011;7717;47.792;12.076;2023-11-21T08:36:21;3.87;;;2.23;;
15228;SDS011;7717;47.792;12.076;2023-11-21T08:38:49;1.97;;;1.77;;
15228;SDS011;7717;47.792;12.076;2023-11-21T08:41:21;2.93;;;1.60;;
15228;SDS011;7717;47.792;12.076;2023-11-21T08:43:50;3.10;;;1.63;;
15228;SDS011;7717;47.792;12.076;2023-11-21T08:46:16;4.63;;;2.10;;
15228;SDS011;7717;47.792;12.076;2023-11-21T08:48:44;3.63;;;2.10;;
15228;SDS011;7717;47.792;12.076;2023-11-21T08:51:10;3.40;;;2.33;;
15228;SDS011;7717;47.792;12.076;2023-11-21T08:53:39;3.83;;;1.70;;
15228;SDS011;7717;47.792;12.076;2023-11-21T08:56:04;2.73;;;1.60;;
15228;SDS011;7717;47.792;12.076;2023-11-21T08:58:31;2.10;;;1.70;;
15228;SDS011;7717;47.792;12.076;2023-11-21T09:00:57;1.30;;;1.03;;
15228;SDS011;7717;47.792;12.076;2023-11-21T09:03:23;0.90;;;0.80;;
15228;SDS011;7717;47.792;12.076;2023-11-21T09:05:48;0.63;;;0.50;;
15228;SDS011;7717;47.792;12.076;2023-11-21T09:08:14;0.60;;;0.50;;
15228;SDS011;7717;47.792;12.076;2023-11-21T09:10:39;1.47;;;0.60;;
15228;SDS011;7717;47.792;12.076;2023-11-21T09:13:04;0.60;;;0.60;;
15228;SDS011;7717;47.792;12.076;2023-11-21T09:15:30;0.60;;;0.40;;
15228;SDS011;7717;47.792;12.076;2023-11-21T09:17:58;0.80;;;0.70;;
15228;SDS011;7717;47.792;12.076;2023-11-21T09:20:27;1.73;;;1.00;;
15228;SDS011;7717;47.792;12.076;2023-11-21T09:22:53;0.50;;;0.50;;
15228;SDS011;7717;47.792;12.076;2023-11-21T09:25:20;0.53;;;0.50;;
15228;SDS011;7717;47.792;12.076;2023-11-21T09:27:46;3.03;;;0.90;;
15228;SDS011;7717;47.792;12.076;2023-11-21T09:30:12;1.00;;;0.67;;
15228;SDS011;7717;47.792;12.076;2023-11-21T09:32:39;0.40;;;0.40;;
15228;SDS011;7717;47.792;12.076;2023-11-21T09:35:05;1.47;;;0.50;;
15228;SDS011;7717;47.792;12.076;2023-11-21T09:37:33;0.97;;;0.50;;
15228;SDS011;7717;47.792;12.076;2023-11-21T09:39:59;0.60;;;0.40;;
15228;SDS011;7717;47.792;12.076;2023-11-21T09:45:06;0.40;;;0.40;;
15228;SDS011;7717;47.792;12.076;2023-11-21T09:47:41;0.73;;;0.40;;
15228;SDS011;7717;47.792;12.076;2023-11-21T09:50:07;0.97;;;0.30;;
15228;SDS011;7717;47.792;12.076;2023-11-21T09:52:47;0.30;;;0.30;;
15228;SDS011;7717;47.792;12.076;2023-11-21T09:55:20;0.97;;;0.70;;
15228;SDS011;7717;47.792;12.076;2023-11-21T09:57:47;0.80;;;0.50;;
15228;SDS011;7717;47.792;12.076;2023-11-21T10:00:14;1.63;;;0.60;;
15228;SDS011;7717;47.792;12.076;2023-11-21T10:02:42;0.40;;;0.40;;
15228;SDS011;7717;47.792;12.076;2023-11-21T10:05:08;0.30;;;0.30;;
15228;SDS011;7717;47.792;12.076;2023-11-21T10:07:36;1.17;;;0.60;;
15228;SDS011;7717;47.792;12.076;2023-11-21T10:10:02;0.83;;;0.50;;
15228;SDS011;7717;47.792;12.076;2023-11-21T10:12:33;0.57;;;0.40;;
15228;SDS011;7717;47.792;12.076;2023-11-21T10:15:00;0.40;;;0.40;;
15228;SDS011;7717;47.792;12.076;2023-11-21T10:17:28;0.50;;;0.50;;
15228;SDS011;7717;47.792;12.076;2023-11-21T10:20:02;1.17;;;0.60;;
15228;SDS011;7717;47.792;12.076;2023-11-21T10:22:37;1.30;;;1.07;;
15228;SDS011;7717;47.792;12.076;2023-11-21T10:25:04;1.60;;;0.83;;
15228;SDS011;7717;47.792;12.076;2023-11-21T10:27:33;0.37;;;0.37;;
15228;SDS011;7717;47.792;12.076;2023-11-21T10:30:02;1.70;;;0.50;;
15228;SDS011;7717;47.792;12.076;2023-11-21T10:32:31;1.00;;;0.23;;
15228;SDS011;7717;47.792;12.076;2023-11-21T10:34:58;0.63;;;0.50;;
15228;SDS011;7717;47.792;12.076;2023-11-21T10:37:38;0.80;;;0.50;;
15228;SDS011;7717;47.792;12.076;2023-11-21T10:40:08;2.70;;;0.70;;
15228;SDS011;7717;47.792;12.076;2023-11-21T10:42:38;1.70;;;0.53;;
15228;SDS011;7717;47.792;12.076;2023-11-21T10:45:09;4.80;;;2.40;;
15228;SDS011;7717;47.792;12.076;2023-11-21T10:47:39;1.23;;;0.60;;
15228;SDS011;7717;47.792;12.076;2023-11-21T10:50:06;1.10;;;0.67;;
15228;SDS011;7717;47.792;12.076;2023-11-21T10:52:42;1.30;;;0.50;;
15228;SDS011;7717;47.792;12.076;2023-11-21T10:55:20;0.53;;;0.50;;
15228;SDS011;7717;47.792;12.076;2023-11-21T10:57:52;0.47;;;0.37;;
15228;SDS011;7717;47.792;12.076;2023-11-21T11:00:19;0.50;;;0.50;;
15228;SDS011;7717;47.792;12.076;2023-11-21T11:02:52;1.23;;;0.83;;
15228;SDS011;7717;47.792;12.076;2023-11-21T11:05:25;0.60;;;0.60;;
15228;SDS011;7717;47.792;12.076;2023-11-21T11:08:00;1.07;;;0.87;;
15228;SDS011;7717;47.792;12.076;2023-11-21T11:10:33;1.00;;;0.80;;
15228;SDS011;7717;47.792;12.076;2023-11-21T11:12:58;1.73;;;1.00;;
15228;SDS011;7717;47.792;12.076;2023-11-21T11:15:25;1.50;;;0.90;;
15228;SDS011;7717;47.792;12.076;2023-11-21T11:17:52;0.70;;;0.70;;
15228;SDS011;7717;47.792;12.076;2023-11-21T11:20:21;1.30;;;1.20;;
15228;SDS011;7717;47.792;12.076;2023-11-21T11:22:56;0.60;;;0.60;;
15228;SDS011;7717;47.792;12.076;2023-11-21T11:31:14;1.27;;;0.67;;
15228;SDS011;7717;47.792;12.076;2023-11-21T11:34:38;0.83;;;0.70;;
15228;SDS011;7717;47.792;12.076;2023-11-21T11:36:46;1.33;;;0.80;;
15228;SDS011;7717;47.792;12.076;2023-11-21T11:39:27;0.73;;;0.70;;
15228;SDS011;7717;47.792;12.076;2023-11-21T11:41:56;1.10;;;0.87;;
15228;SDS011;7717;47.792;12.076;2023-11-21T11:47:14;1.43;;;0.60;;
15228;SDS011;7717;47.792;12.076;2023-11-21T11:50:17;0.83;;;0.60;;
15228;SDS011;7717;47.792;12.076;2023-11-21T11:52:46;0.50;;;0.50;;
15228;SDS011;7717;47.792;12.076;2023-11-21T11:55:18;1.20;;;0.80;;
15228;SDS011;7717;47.792;12.076;2023-11-21T11:57:45;1.03;;;0.80;;
15228;SDS011;7717;47.792;12.076;2023-11-21T12:00:21;2.53;;;1.10;;
15228;SDS011;7717;47.792;12.076;2023-11-21T12:02:51;2.07;;;0.90;;
15228;SDS011;7717;47.792;12.076;2023-11-21T12:05:27;1.70;;;0.80;;
15228;SDS011;7717;47.792;12.076;2023-11-21T12:07:53;1.47;;;0.80;;
15228;SDS011;7717;47.792;12.076;2023-11-21T12:10:26;0.80;;;0.73;;
15228;SDS011;7717;47.792;12.076;2023-11-21T12:12:54;0.40;;;0.40;;
15228;SDS011;7717;47.792;12.076;2023-11-21T12:15:20;0.40;;;0.40;;
15228;SDS011;7717;47.792;12.076;2023-11-21T12:17:46;0.53;;;0.53;;
15228;SDS011;7717;47.792;12.076;2023-11-21T12:20:14;0.90;;;0.83;;
15228;SDS011;7717;47.792;12.076;2023-11-21T12:22:50;0.97;;;0.80;;
15228;SDS011;7717;47.792;12.076;2023-11-21T12:27:51;0.73;;;0.40;;
15228;SDS011;7717;47.792;12.076;2023-11-21T12:30:19;4.67;;;1.77;;
15228;SDS011;7717;47.792;12.076;2023-11-21T12:32:53;2.20;;;1.40;;
15228;SDS011;7717;47.792;12.076;2023-11-21T12:35:24;3.10;;;1.57;;
15228;SDS011;7717;47.792;12.076;2023-11-21T12:37:52;4.47;;;2.13;;
15228;SDS011;7717;47.792;12.076;2023-11-21T12:40:18;0.60;;;0.60;;
15228;SDS011;7717;47.792;12.076;2023-11-21T12:42:45;1.37;;;0.80;;
15228;SDS011;7717;47.792;12.076;2023-11-21T12:48:00;0.60;;;0.60;;
15228;SDS011;7717;47.792;12.076;2023-11-21T12:50:34;1.90;;;0.67;;
15228;SDS011;7717;47.792;12.076;2023-11-21T12:53:02;1.33;;;0.80;;
15228;SDS011;7717;47.792;12.076;2023-11-21T12:55:38;1.00;;;0.70;;
15228;SDS011;7717;47.792;12.076;2023-11-21T12:58:07;0.90;;;0.80;;
15228;SDS011;7717;47.792;12.076;2023-11-21T13:00:35;1.23;;;0.70;;
15228;SDS011;7717;47.792;12.076;2023-11-21T13:03:04;0.50;;;0.50;;
15228;SDS011;7717;47.792;12.076;2023-11-21T13:05:38;0.43;;;0.43;;
15228;SDS011;7717;47.792;12.076;2023-11-21T13:08:05;0.57;;;0.50;;
15228;SDS011;7717;47.792;12.076;2023-11-21T13:10:34;0.90;;;0.90;;
15228;SDS011;7717;47.792;12.076;2023-11-21T13:13:02;1.30;;;0.70;;
15228;SDS011;7717;47.792;12.076;2023-11-21T13:15:39;1.00;;;0.40;;
15228;SDS011;7717;47.792;12.076;2023-11-21T13:18:06;0.40;;;0.40;;
15228;SDS011;7717;47.792;12.076;2023-11-21T13:20:32;1.30;;;0.50;;
15228;SDS011;7717;47.792;12.076;2023-11-21T13:22:58;1.27;;;1.07;;
15228;SDS011;7717;47.792;12.076;2023-11-21T13:25:26;1.03;;;0.93;;
15228;SDS011;7717;47.792;12.076;2023-11-21T13:27:56;1.93;;;1.37;;
15228;SDS011;7717;47.792;12.076;2023-11-21T13:30:22;0.60;;;0.60;;
15228;SDS011;7717;47.792;12.076;2023-11-21T13:33:01;0.70;;;0.70;;
15228;SDS011;7717;47.792;12.076;2023-11-21T13:35:32;1.33;;;1.07;;
15228;SDS011;7717;47.792;12.076;2023-11-21T13:38:18;0.80;;;0.80;;
15228;SDS011;7717;47.792;12.076;2023-11-21T13:40:50;0.73;;;0.63;;
15228;SDS011;7717;47.792;12.076;2023-11-21T13:43:24;1.33;;;0.90;;
15228;SDS011;7717;47.792;12.076;2023-11-21T13:45:51;1.30;;;0.70;;
15228;SDS011;7717;47.792;12.076;2023-11-21T13:48:28;2.63;;;0.90;;
15228;SDS011;7717;47.792;12.076;2023-11-21T13:50:59;1.57;;;1.07;;
15228;SDS011;7717;47.792;12.076;2023-11-21T13:53:33;1.47;;;1.20;;
15228;SDS011;7717;47.792;12.076;2023-11-21T13:56:01;1.33;;;1.23;;
15228;SDS011;7717;47.792;12.076;2023-11-21T13:58:27;1.00;;;0.50;;
15228;SDS011;7717;47.792;12.076;2023-11-21T14:01:16;0.70;;;0.70;;
15228;SDS011;7717;47.792;12.076;2023-11-21T14:03:57;1.20;;;0.97;;
15228;SDS011;7717;47.792;12.076;2023-11-21T14:06:34;0.83;;;0.83;;
15228;SDS011;7717;47.792;12.076;2023-11-21T14:09:07;1.47;;;1.37;;
15228;SDS011;7717;47.792;12.076;2023-11-21T14:11:33;4.43;;;3.10;;
15228;SDS011;7717;47.792;12.076;2023-11-21T14:14:03;9.93;;;6.30;;
15228;SDS011;7717;47.792;12.076;2023-11-21T14:16:28;5.73;;;3.73;;
15228;SDS011;7717;47.792;12.076;2023-11-21T14:18:54;3.87;;;2.07;;
15228;SDS011;7717;47.792;12.076;2023-11-21T14:21:29;5.60;;;3.83;;
15228;SDS011;7717;47.792;12.076;2023-11-21T14:23:54;2.30;;;2.10;;
15228;SDS011;7717;47.792;12.076;2023-11-21T14:26:20;1.43;;;0.90;;
15228;SDS011;7717;47.792;12.076;2023-11-21T14:28:46;0.93;;;0.90;;
15228;SDS011;7717;47.792;12.076;2023-11-21T14:31:14;0.90;;;0.80;;
15228;SDS011;7717;47.792;12.076;2023-11-21T14:33:42;1.40;;;1.30;;
15228;SDS011;7717;47.792;12.076;2023-11-21T14:36:09;0.97;;;0.97;;
15228;SDS011;7717;47.792;12.076;2023-11-21T14:38:35;2.10;;;1.57;;
15228;SDS011;7717;47.792;12.076;2023-11-21T14:41:05;2.33;;;1.70;;
15228;SDS011;7717;47.792;12.076;2023-11-21T14:43:33;1.90;;;1.60;;
15228;SDS011;7717;47.792;12.076;2023-11-21T14:46:01;1.63;;;1.00;;
15228;SDS011;7717;47.792;12.076;2023-11-21T14:48:28;1.57;;;1.20;;
15228;SDS011;7717;47.792;12.076;2023-11-21T14:51:23;2.83;;;2.50;;
15228;SDS011;7717;47.792;12.076;2023-11-21T14:54:10;3.17;;;2.33;;
15228;SDS011;7717;47.792;12.076;2023-11-21T14:56:37;20.70;;;11.57;;
15228;SDS011;7717;47.792;12.076;2023-11-21T14:59:04;9.33;;;5.30;;
15228;SDS011;7717;47.792;12.076;2023-11-21T15:01:37;9.87;;;5.23;;
15228;SDS011;7717;47.792;12.076;2023-11-21T15:04:20;6.17;;;4.07;;
15228;SDS011;7717;47.792;12.076;2023-11-21T15:07:03;7.70;;;3.60;;